createdAt,value
2017-03-11T00:00:05.346Z,1015.05
2017-03-11T00:01:24.848Z,1015.02
2017-03-11T00:02:41.948Z,1015.01
2017-03-11T00:03:57.864Z,1015
2017-03-11T00:05:18.253Z,1015
2017-03-11T00:06:33.591Z,1015
2017-03-11T00:07:47.120Z,1015.06
2017-03-11T00:09:01.089Z,1015.01
2017-03-11T00:10:14.597Z,1015
2017-03-11T00:11:28.084Z,1015.03
2017-03-11T00:12:42.048Z,1015.03
2017-03-11T00:13:55.479Z,1015.04
2017-03-11T00:15:09.333Z,1015.07
2017-03-11T00:16:22.799Z,1015.04
2017-03-11T00:17:37.053Z,1015.06
2017-03-11T00:18:50.638Z,1015.09
2017-03-11T00:20:04.300Z,1015.05
2017-03-11T00:21:19.009Z,1015.02
2017-03-11T00:22:32.452Z,1015.05
2017-03-11T00:23:45.921Z,1015.02
2017-03-11T00:24:59.893Z,1015.03
2017-03-11T00:26:13.740Z,1015
2017-03-11T00:27:27.579Z,1014.99
2017-03-11T00:28:41.023Z,1015.02
2017-03-11T00:29:54.502Z,1014.94
2017-03-11T00:31:08.469Z,1014.99
2017-03-11T00:32:21.955Z,1015
2017-03-11T00:36:18.795Z,1015.03
2017-03-11T00:37:34.467Z,1015.1
2017-03-11T00:38:47.919Z,1015.05
2017-03-11T00:40:01.357Z,1015.06
2017-03-11T00:41:15.331Z,1015.05
2017-03-11T00:42:28.779Z,1015
2017-03-11T00:43:55.081Z,1014.96
2017-03-11T00:45:08.497Z,1015.01
2017-03-11T00:46:22.059Z,1015.04
2017-03-11T00:47:35.493Z,1015.08
2017-03-11T00:48:49.749Z,1015.07
2017-03-11T00:50:03.234Z,1015.05
2017-03-11T00:51:16.810Z,1015.03
2017-03-11T00:52:30.654Z,1014.97
2017-03-11T00:53:44.557Z,1014.94
2017-03-11T00:54:58.422Z,1014.93
2017-03-11T00:56:12.579Z,1014.94
2017-03-11T00:57:26.446Z,1015
2017-03-11T00:58:39.886Z,1014.94
2017-03-11T00:59:53.339Z,1014.98
2017-03-11T01:01:07.419Z,1015
2017-03-11T01:02:21.663Z,1015.04
2017-03-11T01:03:35.351Z,1014.98
2017-03-11T01:04:48.819Z,1015.04
2017-03-11T01:06:02.250Z,1015.05
2017-03-11T01:07:15.814Z,1015.08
2017-03-11T01:08:29.238Z,1015.05
2017-03-11T01:09:42.707Z,1015.01
2017-03-11T01:10:56.617Z,1015.07
2017-03-11T01:12:10.182Z,1015.07
2017-03-11T01:13:24.119Z,1015.09
2017-03-11T01:14:37.577Z,1015
2017-03-11T01:15:51.068Z,1014.94
2017-03-11T01:17:04.558Z,1014.88
2017-03-11T01:18:18.149Z,1014.82
2017-03-11T01:19:31.627Z,1014.81
2017-03-11T01:20:45.104Z,1014.78
2017-03-11T01:21:59.156Z,1014.75
2017-03-11T01:23:13.171Z,1014.74
2017-03-11T01:24:28.030Z,1014.71
2017-03-11T01:25:41.969Z,1014.69
2017-03-11T01:26:56.031Z,1014.63
2017-03-11T01:28:10.087Z,1014.71
2017-03-11T01:29:23.774Z,1014.68
2017-03-11T01:30:37.627Z,1014.65
2017-03-11T01:31:51.343Z,1014.62
2017-03-11T01:33:04.818Z,1014.66
2017-03-11T01:34:18.390Z,1014.69
2017-03-11T01:35:31.972Z,1014.7
2017-03-11T01:36:45.404Z,1014.77
2017-03-11T01:37:58.839Z,1014.71
2017-03-11T01:39:13.722Z,1014.71
2017-03-11T01:40:27.556Z,1014.69
2017-03-11T01:41:41.221Z,1014.66
2017-03-11T01:42:55.112Z,1014.68
2017-03-11T01:44:08.578Z,1014.68
2017-03-11T01:45:22.351Z,1014.69
2017-03-11T01:46:36.254Z,1014.7
2017-03-11T01:47:49.915Z,1014.72
2017-03-11T01:49:03.419Z,1014.66
2017-03-11T01:50:16.908Z,1014.75
2017-03-11T01:51:30.371Z,1014.66
2017-03-11T01:52:43.857Z,1014.64
2017-03-11T01:53:59.946Z,1014.59
2017-03-11T01:55:14.500Z,1014.57
2017-03-11T01:56:27.958Z,1014.51
2017-03-11T01:57:41.806Z,1014.42
2017-03-11T01:58:55.653Z,1014.42
2017-03-11T02:00:09.727Z,1014.41
2017-03-11T02:01:23.309Z,1014.36
2017-03-11T02:02:37.225Z,1014.34
2017-03-11T02:03:50.699Z,1014.36
2017-03-11T02:05:04.609Z,1014.34
2017-03-11T02:06:18.151Z,1014.33
2017-03-11T02:07:31.623Z,1014.32
2017-03-11T02:08:45.549Z,1014.32
2017-03-11T02:09:58.989Z,1014.33
2017-03-11T02:11:12.540Z,1014.33
2017-03-11T02:12:25.990Z,1014.3
2017-03-11T02:13:39.991Z,1014.3
2017-03-11T02:15:12.672Z,1014.21
2017-03-11T02:16:26.218Z,1014.24
2017-03-11T02:17:39.631Z,1014.21
2017-03-11T02:18:53.984Z,1014.16
2017-03-11T02:20:07.508Z,1014.22
2017-03-11T02:21:21.824Z,1014.22
2017-03-11T02:22:54.594Z,1014.23
2017-03-11T02:24:08.604Z,1014.19
2017-03-11T02:25:22.194Z,1014.18
2017-03-11T02:26:35.672Z,1014.18
2017-03-11T02:27:49.991Z,1014.19
2017-03-11T02:29:03.487Z,1014.18
2017-03-11T02:30:17.026Z,1014.14
2017-03-11T02:31:30.619Z,1014.11
2017-03-11T02:32:44.092Z,1014.05
2017-03-11T02:33:57.589Z,1013.99
2017-03-11T02:35:11.033Z,1013.94
2017-03-11T02:36:24.607Z,1013.96
2017-03-11T02:37:38.306Z,1013.91
2017-03-11T02:38:52.187Z,1013.92
2017-03-11T02:40:05.638Z,1013.84
2017-03-11T02:41:19.348Z,1013.83
2017-03-11T02:42:32.940Z,1013.78
2017-03-11T02:43:46.927Z,1013.77
2017-03-11T02:45:00.323Z,1013.76
2017-03-11T02:46:14.199Z,1013.77
2017-03-11T02:47:27.743Z,1013.8
2017-03-11T02:48:41.789Z,1013.76
2017-03-11T02:49:55.575Z,1013.8
2017-03-11T02:51:09.047Z,1013.74
2017-03-11T02:52:22.563Z,1013.77
2017-03-11T02:53:36.420Z,1013.73
2017-03-11T02:54:49.872Z,1013.73
2017-03-11T02:56:04.073Z,1013.75
2017-03-11T02:57:17.576Z,1013.75
2017-03-11T02:58:31.257Z,1013.76
2017-03-11T02:59:44.668Z,1013.74
2017-03-11T03:00:58.182Z,1013.75
2017-03-11T03:02:12.016Z,1013.78
2017-03-11T03:03:25.489Z,1013.78
2017-03-11T03:04:39.000Z,1013.74
2017-03-11T03:05:52.449Z,1013.79
2017-03-11T03:07:05.897Z,1013.8
2017-03-11T03:08:19.638Z,1013.79
2017-03-11T03:09:33.514Z,1013.8
2017-03-11T03:10:49.599Z,1013.77
2017-03-11T03:12:03.543Z,1013.8
2017-03-11T03:13:17.078Z,1013.82
2017-03-11T03:14:30.526Z,1013.83
2017-03-11T03:15:44.023Z,1013.81
2017-03-11T03:16:57.514Z,1013.82
2017-03-11T03:18:10.955Z,1013.82
2017-03-11T03:19:24.513Z,1013.83
2017-03-11T03:20:38.373Z,1013.85
2017-03-11T03:21:52.197Z,1013.85
2017-03-11T03:23:05.930Z,1013.86
2017-03-11T03:26:49.628Z,1013.88
2017-03-11T03:28:03.313Z,1013.86
2017-03-11T03:29:24.289Z,1013.82
2017-03-11T03:30:45.649Z,1013.83
2017-03-11T03:32:06.982Z,1013.79
2017-03-11T03:33:28.607Z,1013.77
2017-03-11T03:34:50.274Z,1013.79
2017-03-11T03:36:11.549Z,1013.78
2017-03-11T03:37:33.147Z,1013.78
2017-03-11T03:38:54.335Z,1013.74
2017-03-11T03:40:15.108Z,1013.71
2017-03-11T03:41:35.494Z,1013.71
2017-03-11T03:42:55.793Z,1013.68
2017-03-11T03:44:16.840Z,1013.65
2017-03-11T03:45:36.097Z,1013.6
2017-03-11T03:46:49.999Z,1013.57
2017-03-11T03:48:03.429Z,1013.57
2017-03-11T03:49:17.524Z,1013.57
2017-03-11T03:50:30.958Z,1013.53
2017-03-11T03:51:44.429Z,1013.52
2017-03-11T03:53:04.556Z,1013.51
2017-03-11T03:54:18.117Z,1013.44
2017-03-11T03:55:31.631Z,1013.41
2017-03-11T03:56:45.066Z,1013.36
2017-03-11T03:57:59.149Z,1013.37
2017-03-11T03:59:12.745Z,1013.38
2017-03-11T04:00:29.158Z,1013.38
2017-03-11T04:01:44.731Z,1013.41
2017-03-11T04:02:58.965Z,1013.37
2017-03-11T04:04:12.779Z,1013.31
2017-03-11T04:05:26.338Z,1013.37
2017-03-11T04:06:39.793Z,1013.34
2017-03-11T04:07:53.199Z,1013.37
2017-03-11T04:09:06.689Z,1013.33
2017-03-11T04:10:20.649Z,1013.37
2017-03-11T04:11:34.184Z,1013.38
2017-03-11T04:12:47.590Z,1013.39
2017-03-11T04:14:01.047Z,1013.34
2017-03-11T04:15:14.527Z,1013.31
2017-03-11T04:16:28.077Z,1013.3
2017-03-11T04:17:41.602Z,1013.32
2017-03-11T04:18:55.033Z,1013.27
2017-03-11T04:20:08.474Z,1013.24
2017-03-11T04:21:22.020Z,1013.24
2017-03-11T04:22:35.441Z,1013.2
2017-03-11T04:23:48.934Z,1013.26
2017-03-11T04:25:02.519Z,1013.31
2017-03-11T04:26:16.073Z,1013.29
2017-03-11T04:27:29.506Z,1013.26
2017-03-11T04:28:43.339Z,1013.29
2017-03-11T04:29:58.943Z,1013.27
2017-03-11T04:31:12.410Z,1013.28
2017-03-11T04:32:25.892Z,1013.22
2017-03-11T04:33:40.265Z,1013.14
2017-03-11T04:34:54.284Z,1013.13
2017-03-11T04:36:08.149Z,1013.1
2017-03-11T04:37:21.822Z,1013.11
2017-03-11T04:38:35.704Z,1013.14
2017-03-11T04:39:49.696Z,1013.08
2017-03-11T04:41:03.174Z,1013.14
2017-03-11T04:42:16.778Z,1013.16
2017-03-11T04:43:30.289Z,1013.2
2017-03-11T04:44:43.680Z,1013.22
2017-03-11T04:45:57.205Z,1013.24
2017-03-11T04:47:10.754Z,1013.25
2017-03-11T04:48:24.262Z,1013.18
2017-03-11T04:49:37.803Z,1013.21
2017-03-11T04:50:51.244Z,1013.18
2017-03-11T04:52:04.677Z,1013.17
2017-03-11T04:53:18.443Z,1013.18
2017-03-11T04:54:31.886Z,1013.2
2017-03-11T04:55:45.319Z,1013.23
2017-03-11T04:56:58.744Z,1013.23
2017-03-11T04:58:12.236Z,1013.2
2017-03-11T04:59:25.707Z,1013.25
2017-03-11T05:00:39.165Z,1013.22
2017-03-11T05:01:52.577Z,1013.25
2017-03-11T05:03:06.116Z,1013.24
2017-03-11T05:04:19.580Z,1013.22
2017-03-11T05:05:32.974Z,1013.24
2017-03-11T05:06:46.438Z,1013.18
2017-03-11T05:07:59.844Z,1013.17
2017-03-11T05:09:13.402Z,1013.17
2017-03-11T05:10:27.465Z,1013.16
2017-03-11T05:11:40.902Z,1013.11
2017-03-11T05:12:54.732Z,1013.08
2017-03-11T05:14:08.224Z,1013.1
2017-03-11T05:15:21.613Z,1013.11
2017-03-11T05:16:35.561Z,1013.11
2017-03-11T05:17:49.008Z,1013.09
2017-03-11T05:19:02.503Z,1013.17
2017-03-11T05:20:16.355Z,1013.14
2017-03-11T05:21:29.842Z,1013.17
2017-03-11T05:22:43.315Z,1013.16
2017-03-11T05:23:57.283Z,1013.16
2017-03-11T05:25:11.383Z,1013.16
2017-03-11T05:26:24.997Z,1013.17
2017-03-11T05:27:38.631Z,1013.19
2017-03-11T05:28:52.483Z,1013.23
2017-03-11T05:30:05.964Z,1013.3
2017-03-11T05:31:19.484Z,1013.31
2017-03-11T05:32:32.927Z,1013.28
2017-03-11T05:33:46.404Z,1013.25
2017-03-11T05:35:00.040Z,1013.25
2017-03-11T05:36:13.938Z,1013.19
2017-03-11T05:37:27.434Z,1013.21
2017-03-11T05:38:41.323Z,1013.23
2017-03-11T05:39:54.810Z,1013.24
2017-03-11T05:42:53.900Z,1013.29
2017-03-11T05:44:07.782Z,1013.29
2017-03-11T05:45:21.364Z,1013.31
2017-03-11T05:46:49.786Z,1013.31
2017-03-11T05:48:03.917Z,1013.31
2017-03-11T05:49:17.799Z,1013.34
2017-03-11T05:50:31.696Z,1013.32
2017-03-11T05:51:45.570Z,1013.26
2017-03-11T05:52:59.407Z,1013.28
2017-03-11T05:54:12.841Z,1013.21
2017-03-11T05:55:26.352Z,1013.27
2017-03-11T05:56:39.883Z,1013.31
2017-03-11T05:57:53.743Z,1013.29
2017-03-11T05:59:07.226Z,1013.29
2017-03-11T06:00:20.650Z,1013.33
2017-03-11T06:01:34.172Z,1013.26
2017-03-11T06:02:48.043Z,1013.26
2017-03-11T06:04:01.520Z,1013.24
2017-03-11T06:05:15.029Z,1013.15
2017-03-11T06:06:28.573Z,1013.15
2017-03-11T06:07:42.406Z,1013.11
2017-03-11T06:08:56.049Z,1013.09
2017-03-11T06:10:10.272Z,1013.04
2017-03-11T06:11:23.714Z,1013.02
2017-03-11T06:12:37.263Z,1013.01
2017-03-11T06:13:50.702Z,1013.02
2017-03-11T06:15:04.147Z,1012.98
2017-03-11T06:16:17.597Z,1013.03
2017-03-11T06:17:31.721Z,1013.02
2017-03-11T06:18:45.133Z,1013.04
2017-03-11T06:19:58.589Z,1012.99
2017-03-11T06:21:12.029Z,1013.04
2017-03-11T06:22:25.622Z,1012.98
2017-03-11T06:23:39.074Z,1013.02
2017-03-11T06:24:52.503Z,1013.04
2017-03-11T06:26:05.906Z,1013.05
2017-03-11T06:27:19.343Z,1013.08
2017-03-11T06:28:32.916Z,1013.1
2017-03-11T06:29:46.827Z,1013.1
2017-03-11T06:31:00.326Z,1013.04
2017-03-11T06:32:13.815Z,1013.04
2017-03-11T06:33:27.345Z,1013
2017-03-11T06:34:40.818Z,1012.94
2017-03-11T06:35:54.257Z,1012.88
2017-03-11T06:37:08.163Z,1012.87
2017-03-11T06:38:21.739Z,1012.8
2017-03-11T06:39:35.632Z,1012.78
2017-03-11T06:40:49.156Z,1012.78
2017-03-11T06:42:02.620Z,1012.77
2017-03-11T06:43:16.129Z,1012.77
2017-03-11T06:44:29.682Z,1012.75
2017-03-11T06:45:43.135Z,1012.72
2017-03-11T06:46:56.630Z,1012.7
2017-03-11T06:48:10.090Z,1012.68
2017-03-11T06:49:23.689Z,1012.7
2017-03-11T06:50:37.143Z,1012.66
2017-03-11T06:51:50.602Z,1012.62
2017-03-11T06:53:04.425Z,1012.6
2017-03-11T06:54:17.958Z,1012.62
2017-03-11T06:55:31.799Z,1012.64
2017-03-11T06:56:45.226Z,1012.68
2017-03-11T06:57:58.815Z,1012.72
2017-03-11T06:59:12.291Z,1012.73
2017-03-11T07:00:26.247Z,1012.76
2017-03-11T07:01:39.718Z,1012.79
2017-03-11T07:02:55.378Z,1012.79
2017-03-11T07:04:09.217Z,1012.78
2017-03-11T07:05:22.839Z,1012.77
2017-03-11T07:06:36.304Z,1012.77
2017-03-11T07:07:50.157Z,1012.75
2017-03-11T07:09:03.595Z,1012.71
2017-03-11T07:10:17.528Z,1012.75
2017-03-11T07:11:30.990Z,1012.72
2017-03-11T07:12:44.428Z,1012.68
2017-03-11T07:13:57.866Z,1012.64
2017-03-11T07:15:11.735Z,1012.57
2017-03-11T07:16:25.711Z,1012.61
2017-03-11T07:17:39.166Z,1012.63
2017-03-11T07:18:53.030Z,1012.63
2017-03-11T07:20:06.888Z,1012.64
2017-03-11T07:21:20.452Z,1012.66
2017-03-11T07:22:34.624Z,1012.71
2017-03-11T07:23:48.126Z,1012.72
2017-03-11T07:25:02.035Z,1012.71
2017-03-11T07:26:15.569Z,1012.62
2017-03-11T07:27:29.424Z,1012.61
2017-03-11T07:28:43.756Z,1012.65
2017-03-11T07:29:57.190Z,1012.61
2017-03-11T07:31:10.604Z,1012.59
2017-03-11T07:32:24.626Z,1012.6
2017-03-11T07:33:38.071Z,1012.66
2017-03-11T07:34:52.248Z,1012.73
2017-03-11T07:36:05.706Z,1012.69
2017-03-11T07:37:19.295Z,1012.67
2017-03-11T07:38:33.860Z,1012.7
2017-03-11T07:39:47.302Z,1012.66
2017-03-11T07:41:01.961Z,1012.68
2017-03-11T07:42:15.500Z,1012.65
2017-03-11T07:43:28.918Z,1012.72
2017-03-11T07:44:42.373Z,1012.69
2017-03-11T07:45:56.348Z,1012.63
2017-03-11T07:47:10.099Z,1012.65
2017-03-11T07:48:24.093Z,1012.68
2017-03-11T07:49:37.520Z,1012.67
2017-03-11T07:50:50.979Z,1012.65
2017-03-11T07:52:04.856Z,1012.7
2017-03-11T07:53:18.785Z,1012.72
2017-03-11T07:54:32.262Z,1012.69
2017-03-11T07:55:46.592Z,1012.75
2017-03-11T07:57:00.045Z,1012.77
2017-03-11T07:58:13.982Z,1012.77
2017-03-11T07:59:27.686Z,1012.75
2017-03-11T08:00:41.130Z,1012.84
2017-03-11T08:01:54.605Z,1012.82
2017-03-11T08:03:08.069Z,1012.81
2017-03-11T08:04:21.692Z,1012.82
2017-03-11T08:05:35.412Z,1012.81
2017-03-11T08:06:48.910Z,1012.8
2017-03-11T08:08:02.922Z,1012.78
2017-03-11T08:09:16.520Z,1012.84
2017-03-11T08:10:29.990Z,1012.75
2017-03-11T08:11:43.725Z,1012.78
2017-03-11T08:12:57.571Z,1012.79
2017-03-11T08:14:11.715Z,1012.72
2017-03-11T08:15:25.663Z,1012.71
2017-03-11T08:16:39.091Z,1012.74
2017-03-11T08:17:52.835Z,1012.65
2017-03-11T08:19:08.464Z,1012.63
2017-03-11T08:20:21.987Z,1012.71
2017-03-11T08:21:54.649Z,1012.61
2017-03-11T08:23:08.373Z,1012.58
2017-03-11T08:24:22.391Z,1012.62
2017-03-11T08:25:35.842Z,1012.64
2017-03-11T08:26:49.500Z,1012.62
2017-03-11T08:28:03.005Z,1012.66
2017-03-11T08:29:17.430Z,1012.71
2017-03-11T08:30:31.588Z,1012.63
2017-03-11T08:31:45.068Z,1012.68
2017-03-11T08:32:58.591Z,1012.7
2017-03-11T08:34:12.063Z,1012.68
2017-03-11T08:35:26.252Z,1012.7
2017-03-11T08:36:40.469Z,1012.66
2017-03-11T08:37:54.362Z,1012.65
2017-03-11T08:39:08.299Z,1012.63
2017-03-11T08:40:22.303Z,1012.61
2017-03-11T08:41:36.054Z,1012.58
2017-03-11T08:42:49.497Z,1012.55
2017-03-11T08:44:03.038Z,1012.53
2017-03-11T08:45:16.743Z,1012.52
2017-03-11T08:46:30.316Z,1012.45
2017-03-11T08:47:44.047Z,1012.48
2017-03-11T08:48:57.524Z,1012.43
2017-03-11T08:50:11.205Z,1012.35
2017-03-11T08:51:25.385Z,1012.34
2017-03-11T08:52:39.304Z,1012.31
2017-03-11T08:53:53.057Z,1012.31
2017-03-11T08:55:06.539Z,1012.27
2017-03-11T08:56:20.126Z,1012.27
2017-03-11T08:57:33.626Z,1012.21
2017-03-11T08:58:47.118Z,1012.23
2017-03-11T09:00:00.942Z,1012.22
2017-03-11T09:01:14.773Z,1012.27
2017-03-11T09:02:28.251Z,1012.17
2017-03-11T09:03:41.727Z,1012.19
2017-03-11T09:04:55.429Z,1012.17
2017-03-11T09:06:08.896Z,1012.2
2017-03-11T09:07:22.406Z,1012.2
2017-03-11T09:08:35.904Z,1012.16
2017-03-11T09:09:49.358Z,1012.23
2017-03-11T09:11:02.850Z,1012.18
2017-03-11T09:12:16.904Z,1012.16
2017-03-11T09:13:30.488Z,1012.2
2017-03-11T09:14:43.929Z,1012.19
2017-03-11T09:15:57.818Z,1012.19
2017-03-11T09:17:11.278Z,1012.16
2017-03-11T09:18:24.815Z,1012.16
2017-03-11T09:19:38.257Z,1012.1
2017-03-11T09:20:51.851Z,1012.14
2017-03-11T09:22:05.376Z,1012.13
2017-03-11T09:23:19.266Z,1012.1
2017-03-11T09:24:32.910Z,1012.14
2017-03-11T09:25:46.338Z,1012.11
2017-03-11T09:26:59.842Z,1012.11
2017-03-11T09:28:13.789Z,1012.12
2017-03-11T09:29:27.267Z,1012.09
2017-03-11T09:30:41.207Z,1012.11
2017-03-11T09:31:54.791Z,1012.09
2017-03-11T09:33:08.376Z,1012.04
2017-03-11T09:34:22.477Z,1012.08
2017-03-11T09:35:38.568Z,1012.04
2017-03-11T09:36:52.315Z,1011.98
2017-03-11T09:38:05.808Z,1011.99
2017-03-11T09:39:19.755Z,1011.93
2017-03-11T09:40:33.236Z,1012.01
2017-03-11T09:41:46.710Z,1011.96
2017-03-11T09:43:01.451Z,1011.91
2017-03-11T09:44:14.969Z,1011.9
2017-03-11T09:45:28.517Z,1011.94
2017-03-11T09:46:42.945Z,1011.9
2017-03-11T09:47:56.854Z,1011.93
2017-03-11T09:49:10.715Z,1011.95
2017-03-11T09:50:24.171Z,1011.88
2017-03-11T09:51:37.680Z,1011.83
2017-03-11T09:52:51.503Z,1011.91
2017-03-11T09:54:05.457Z,1011.84
2017-03-11T09:55:19.558Z,1011.84
2017-03-11T09:56:33.031Z,1011.83
2017-03-11T09:57:46.813Z,1011.83
2017-03-11T09:59:00.757Z,1011.81
2017-03-11T10:00:14.877Z,1011.85
2017-03-11T10:01:29.651Z,1011.89
2017-03-11T10:02:43.383Z,1011.86
2017-03-11T10:03:56.941Z,1011.89
2017-03-11T10:05:10.463Z,1011.89
2017-03-11T10:06:24.381Z,1011.84
2017-03-11T10:07:38.745Z,1011.8
2017-03-11T10:08:52.816Z,1011.78
2017-03-11T10:10:06.817Z,1011.8
2017-03-11T10:11:23.311Z,1011.78
2017-03-11T10:12:36.996Z,1011.78
2017-03-11T10:13:51.728Z,1011.79
2017-03-11T10:15:08.952Z,1011.78
2017-03-11T10:16:22.700Z,1011.76
2017-03-11T10:17:37.909Z,1011.75
2017-03-11T10:18:52.521Z,1011.74
2017-03-11T10:20:06.297Z,1011.76
2017-03-11T10:21:19.815Z,1011.75
2017-03-11T10:22:33.278Z,1011.75
2017-03-11T10:23:46.893Z,1011.79
2017-03-11T10:25:01.271Z,1011.75
2017-03-11T10:26:15.602Z,1011.71
2017-03-11T10:27:29.533Z,1011.71
2017-03-11T10:30:40.467Z,1011.74
2017-03-11T10:31:54.643Z,1011.8
2017-03-11T10:33:08.226Z,1011.77
2017-03-11T10:34:22.566Z,1011.76
2017-03-11T10:35:36.443Z,1011.72
2017-03-11T10:36:50.465Z,1011.69
2017-03-11T10:38:04.630Z,1011.68
2017-03-11T10:39:18.149Z,1011.71
2017-03-11T10:40:32.118Z,1011.69
2017-03-11T10:41:45.854Z,1011.66
2017-03-11T10:42:59.546Z,1011.58
2017-03-11T10:44:13.333Z,1011.62
2017-03-11T10:45:26.865Z,1011.59
2017-03-11T10:46:40.947Z,1011.54
2017-03-11T10:47:54.396Z,1011.63
2017-03-11T10:49:07.875Z,1011.58
2017-03-11T10:50:21.729Z,1011.58
2017-03-11T10:51:35.774Z,1011.55
2017-03-11T10:52:49.375Z,1011.52
2017-03-11T10:54:05.723Z,1011.46
2017-03-11T10:55:19.285Z,1011.43
2017-03-11T10:56:33.506Z,1011.45
2017-03-11T10:57:47.677Z,1011.39
2017-03-11T10:59:01.345Z,1011.33
2017-03-11T11:00:14.885Z,1011.35
2017-03-11T11:01:28.316Z,1011.4
2017-03-11T11:02:41.988Z,1011.37
2017-03-11T11:03:55.448Z,1011.3
2017-03-11T11:05:09.344Z,1011.33
2017-03-11T11:06:23.311Z,1011.33
2017-03-11T11:07:37.444Z,1011.29
2017-03-11T11:08:51.131Z,1011.25
2017-03-11T11:10:04.665Z,1011.16
2017-03-11T11:11:18.868Z,1011.14
2017-03-11T11:12:33.101Z,1011.11
2017-03-11T11:13:47.103Z,1011.09
2017-03-11T11:15:01.415Z,1011.09
2017-03-11T11:16:15.613Z,1011.11
2017-03-11T11:17:29.143Z,1011.02
2017-03-11T11:18:42.758Z,1011.08
2017-03-11T11:19:56.252Z,1011.11
2017-03-11T11:21:09.991Z,1011.05
2017-03-11T11:22:24.446Z,1011.01
2017-03-11T11:23:38.030Z,1011.01
2017-03-11T11:24:51.490Z,1010.92
2017-03-11T11:26:04.958Z,1010.93
2017-03-11T11:27:18.430Z,1010.85
2017-03-11T11:28:32.166Z,1010.92
2017-03-11T11:29:45.682Z,1010.88
2017-03-11T11:31:02.593Z,1010.82
2017-03-11T11:32:16.995Z,1010.79
2017-03-11T11:33:30.854Z,1010.8
2017-03-11T11:34:45.321Z,1010.8
2017-03-11T11:35:59.190Z,1010.74
2017-03-11T11:37:12.710Z,1010.7
2017-03-11T11:38:26.163Z,1010.63
2017-03-11T11:39:40.416Z,1010.63
2017-03-11T11:40:54.310Z,1010.63
2017-03-11T11:42:07.792Z,1010.61
2017-03-11T11:43:21.261Z,1010.65
2017-03-11T11:44:34.915Z,1010.62
2017-03-11T11:45:49.086Z,1010.62
2017-03-11T11:47:02.584Z,1010.57
2017-03-11T11:48:16.057Z,1010.52
2017-03-11T11:49:30.045Z,1010.54
2017-03-11T11:50:43.491Z,1010.46
2017-03-11T11:51:57.779Z,1010.47
2017-03-11T11:53:11.810Z,1010.33
2017-03-11T11:54:25.804Z,1010.39
2017-03-11T11:55:39.369Z,1010.36
2017-03-11T11:56:53.655Z,1010.38
2017-03-11T11:58:07.822Z,1010.35
2017-03-11T11:59:21.562Z,1010.32
2017-03-11T12:00:35.684Z,1010.35
2017-03-11T12:01:49.122Z,1010.28
2017-03-11T12:03:03.027Z,1010.4
2017-03-11T12:04:17.233Z,1010.37
2017-03-11T12:05:30.812Z,1010.33
2017-03-11T12:06:44.519Z,1010.23
2017-03-11T12:07:57.994Z,1010.26
2017-03-11T12:12:13.631Z,1010.21
2017-03-11T12:13:27.938Z,1010.17
2017-03-11T12:14:41.382Z,1010.14
2017-03-11T12:15:54.848Z,1010.17
2017-03-11T12:17:08.903Z,1010.16
2017-03-11T12:18:23.075Z,1010.1
2017-03-11T12:19:36.805Z,1010.04
2017-03-11T12:20:50.288Z,1010.07
2017-03-11T12:22:04.058Z,1010.06
2017-03-11T12:23:17.631Z,1010.07
2017-03-11T12:24:31.584Z,1009.96
2017-03-11T12:25:45.362Z,1009.96
2017-03-11T12:26:59.548Z,1010.06
2017-03-11T12:28:13.016Z,1010.02
2017-03-11T12:29:26.503Z,1009.99
2017-03-11T12:30:40.146Z,1010
2017-03-11T12:31:53.950Z,1009.97
2017-03-11T12:35:50.071Z,1009.81
2017-03-11T12:37:03.576Z,1009.8
2017-03-11T12:38:17.943Z,1009.8
2017-03-11T12:39:31.492Z,1009.81
2017-03-11T12:42:14.796Z,1009.67
2017-03-11T12:43:28.776Z,1009.63
2017-03-11T12:44:42.648Z,1009.65
2017-03-11T12:45:56.971Z,1009.68
2017-03-11T12:47:11.076Z,1009.64
2017-03-11T12:48:25.850Z,1009.64
2017-03-11T12:49:39.457Z,1009.61
2017-03-11T12:50:53.424Z,1009.66
2017-03-11T12:52:07.479Z,1009.63
2017-03-11T12:53:22.461Z,1009.59
2017-03-11T12:54:37.816Z,1009.7
2017-03-11T12:55:51.709Z,1009.7
2017-03-11T12:57:06.235Z,1009.65
2017-03-11T12:58:20.576Z,1009.63
2017-03-11T12:59:35.011Z,1009.69
2017-03-11T13:00:48.913Z,1009.66
2017-03-11T13:02:02.484Z,1009.64
2017-03-11T13:03:15.973Z,1009.68
2017-03-11T13:04:29.601Z,1009.69
2017-03-11T13:05:43.060Z,1009.65
2017-03-11T13:06:57.121Z,1009.65
2017-03-11T13:08:10.777Z,1009.62
2017-03-11T13:09:24.934Z,1009.68
2017-03-11T13:10:38.560Z,1009.67
2017-03-11T13:11:52.742Z,1009.67
2017-03-11T13:13:06.320Z,1009.63
2017-03-11T13:14:19.847Z,1009.66
2017-03-11T13:15:33.652Z,1009.6
2017-03-11T13:16:47.660Z,1009.49
2017-03-11T13:18:01.248Z,1009.55
2017-03-11T13:19:15.211Z,1009.5
2017-03-11T13:20:29.563Z,1009.48
2017-03-11T13:22:08.721Z,1009.51
2017-03-11T13:23:23.482Z,1009.47
2017-03-11T13:24:37.875Z,1009.51
2017-03-11T13:25:52.222Z,1009.54
2017-03-11T13:27:05.794Z,1009.5
2017-03-11T13:28:20.272Z,1009.54
2017-03-11T13:29:34.311Z,1009.48
2017-03-11T13:30:51.126Z,1009.45
2017-03-11T13:32:04.632Z,1009.44
2017-03-11T13:33:18.582Z,1009.42
2017-03-11T13:34:32.176Z,1009.37
2017-03-11T13:35:45.697Z,1009.35
2017-03-11T13:36:59.310Z,1009.36
2017-03-11T13:38:13.641Z,1009.37
2017-03-11T13:39:27.398Z,1009.36
2017-03-11T13:40:41.381Z,1009.36
2017-03-11T13:41:54.934Z,1009.35
2017-03-11T13:43:09.848Z,1009.35
2017-03-11T13:44:24.188Z,1009.35
2017-03-11T13:45:38.320Z,1009.33
2017-03-11T13:46:52.020Z,1009.29
2017-03-11T13:48:05.556Z,1009.34
2017-03-11T13:49:19.083Z,1009.31
2017-03-11T13:50:33.299Z,1009.27
2017-03-11T13:51:47.694Z,1009.23
2017-03-11T13:53:01.177Z,1009.22
2017-03-11T13:54:15.134Z,1009.26
2017-03-11T13:55:28.702Z,1009.25
2017-03-11T13:56:42.168Z,1009.16
2017-03-11T13:57:56.031Z,1009.2
2017-03-11T13:59:09.518Z,1009.18
2017-03-11T14:00:23.524Z,1009.21
2017-03-11T14:01:36.983Z,1009.15
2017-03-11T14:02:50.435Z,1009.14
2017-03-11T14:04:03.922Z,1009.17
2017-03-11T14:05:17.474Z,1009.18
2017-03-11T14:06:31.045Z,1009.14
2017-03-11T14:07:45.022Z,1009.14
2017-03-11T14:08:58.936Z,1009.1
2017-03-11T14:10:13.039Z,1009.04
2017-03-11T14:11:56.290Z,1009.07
2017-03-11T14:13:09.758Z,1009.02
2017-03-11T14:14:24.317Z,1008.96
2017-03-11T14:15:37.773Z,1008.98
2017-03-11T14:19:07.364Z,1008.97
2017-03-11T14:20:20.841Z,1008.93
2017-03-11T14:21:34.332Z,1008.97
2017-03-11T14:22:48.660Z,1009
2017-03-11T14:24:02.693Z,1008.92
2017-03-11T14:25:16.431Z,1008.92
2017-03-11T14:26:30.788Z,1008.84
2017-03-11T14:27:44.355Z,1008.87
2017-03-11T14:28:57.906Z,1008.84
2017-03-11T14:30:11.395Z,1008.76
2017-03-11T14:31:24.868Z,1008.76
2017-03-11T14:32:38.406Z,1008.71
2017-03-11T14:33:52.353Z,1008.71
2017-03-11T14:35:05.983Z,1008.69
2017-03-11T14:36:19.863Z,1008.69
2017-03-11T14:37:33.762Z,1008.68
2017-03-11T14:38:47.746Z,1008.69
2017-03-11T14:40:01.391Z,1008.67
2017-03-11T14:41:14.875Z,1008.71
2017-03-11T14:42:28.920Z,1008.63
2017-03-11T14:43:42.485Z,1008.64
2017-03-11T14:44:56.653Z,1008.58
2017-03-11T14:46:10.574Z,1008.6
2017-03-11T14:47:24.071Z,1008.57
2017-03-11T14:48:39.718Z,1008.58
2017-03-11T14:49:53.233Z,1008.62
2017-03-11T14:51:07.451Z,1008.6
2017-03-11T14:52:21.345Z,1008.59
2017-03-11T14:53:34.986Z,1008.6
2017-03-11T14:54:48.895Z,1008.53
2017-03-11T14:56:02.986Z,1008.49
2017-03-11T14:57:16.680Z,1008.54
2017-03-11T14:58:30.132Z,1008.5
2017-03-11T14:59:44.289Z,1008.52
2017-03-11T15:00:57.824Z,1008.45
2017-03-11T15:02:11.340Z,1008.45
2017-03-11T15:03:25.346Z,1008.44
2017-03-11T15:04:39.840Z,1008.47
2017-03-11T15:07:38.748Z,1008.43
2017-03-11T15:08:52.569Z,1008.42
2017-03-11T15:10:06.020Z,1008.4
2017-03-11T15:11:19.468Z,1008.43
2017-03-11T15:12:33.430Z,1008.38
2017-03-11T15:13:46.893Z,1008.4
2017-03-11T15:15:00.416Z,1008.38
2017-03-11T15:16:13.895Z,1008.35
2017-03-11T15:17:27.489Z,1008.3
2017-03-11T15:18:40.983Z,1008.34
2017-03-11T15:19:54.898Z,1008.34